createdAt,value
2018-10-09T00:04:49.337Z,8.30
2018-10-09T00:09:53.672Z,8.63
2018-10-09T00:14:57.900Z,7.87
2018-10-09T00:20:02.069Z,9.00
2018-10-09T00:25:07.166Z,6.60
2018-10-09T00:30:11.369Z,6.93
2018-10-09T00:35:15.680Z,7.80
2018-10-09T00:40:19.894Z,8.67
2018-10-09T00:45:24.173Z,7.87
2018-10-09T00:50:28.535Z,7.67
2018-10-09T00:55:32.758Z,7.67
2018-10-09T01:00:37.085Z,8.43
2018-10-09T01:05:41.402Z,7.40
2018-10-09T01:10:45.679Z,8.10
2018-10-09T01:15:49.877Z,7.63
2018-10-09T01:20:54.123Z,7.47
2018-10-09T01:25:58.330Z,8.20
2018-10-09T01:31:02.540Z,9.20
2018-10-09T01:36:06.882Z,8.03
2018-10-09T01:41:11.074Z,8.40
2018-10-09T01:46:15.308Z,6.43
2018-10-09T01:51:19.510Z,8.60
2018-10-09T01:56:23.687Z,5.97
2018-10-09T02:01:27.880Z,6.83
2018-10-09T02:06:32.158Z,10.80
2018-10-09T02:11:36.503Z,8.17
2018-10-09T02:16:40.769Z,8.20
2018-10-09T02:21:45.004Z,10.07
2018-10-09T02:26:49.306Z,8.63
2018-10-09T02:31:53.549Z,8.87
2018-10-09T02:36:57.750Z,7.80
2018-10-09T02:42:02.161Z,8.37
2018-10-09T02:47:06.483Z,8.63
2018-10-09T02:52:10.726Z,8.83
2018-10-09T02:57:14.902Z,9.60
2018-10-09T03:02:19.218Z,12.27
2018-10-09T03:07:23.428Z,8.13
2018-10-09T03:12:27.579Z,10.13
2018-10-09T03:17:31.839Z,13.30
2018-10-09T03:22:36.083Z,9.40
2018-10-09T03:27:40.344Z,10.70
2018-10-09T03:32:44.527Z,9.10
2018-10-09T03:37:48.753Z,9.60
2018-10-09T03:42:53.040Z,9.50
2018-10-09T03:47:57.403Z,8.00
2018-10-09T03:53:01.857Z,10.23
2018-10-09T03:58:06.338Z,7.43
2018-10-09T04:03:10.531Z,8.97
2018-10-09T04:08:14.694Z,7.73
2018-10-09T04:13:19.038Z,9.20
2018-10-09T04:18:23.243Z,7.93
2018-10-09T04:23:27.432Z,10.77
2018-10-09T04:28:31.733Z,9.40
2018-10-09T04:33:36.010Z,8.63
2018-10-09T04:38:40.261Z,10.30
2018-10-09T04:43:44.603Z,10.97
2018-10-09T04:48:49.078Z,9.30
2018-10-09T04:53:53.257Z,11.30
2018-10-09T04:58:57.634Z,11.63
2018-10-09T05:04:01.864Z,10.67
2018-10-09T05:09:09.294Z,10.60
2018-10-09T05:14:13.982Z,9.67
2018-10-09T05:19:18.232Z,12.37
2018-10-09T05:24:22.585Z,10.47
2018-10-09T05:29:27.026Z,9.83
2018-10-09T05:34:31.486Z,11.33
2018-10-09T05:39:35.958Z,8.13
2018-10-09T05:44:40.519Z,12.23
2018-10-09T05:49:44.923Z,10.67
2018-10-09T05:54:49.371Z,11.23
2018-10-09T05:59:53.888Z,9.93
2018-10-09T06:04:58.220Z,9.50
2018-10-09T06:10:02.459Z,10.10
2018-10-09T06:15:06.971Z,9.57
2018-10-09T06:20:11.351Z,10.17
2018-10-09T06:25:15.616Z,8.67
2018-10-09T06:30:19.801Z,11.30
2018-10-09T06:35:24.040Z,11.57
2018-10-09T06:40:28.435Z,12.03
2018-10-09T06:45:34.237Z,10.83
2018-10-09T06:50:38.814Z,12.07
2018-10-09T06:55:43.256Z,13.70
2018-10-09T07:00:47.589Z,10.93
2018-10-09T07:05:51.796Z,13.40
2018-10-09T07:10:56.496Z,11.17
2018-10-09T07:16:06.419Z,10.30
2018-10-09T07:21:10.797Z,12.93
2018-10-09T07:26:14.973Z,11.97
2018-10-09T07:31:19.196Z,10.60
2018-10-09T07:36:23.506Z,11.10
2018-10-09T07:41:27.887Z,12.60
2018-10-09T07:46:32.076Z,13.63
2018-10-09T07:51:36.286Z,14.80
2018-10-09T07:56:40.492Z,13.47
2018-10-09T08:01:44.705Z,13.97
2018-10-09T08:06:49.216Z,16.50
2018-10-09T08:11:53.459Z,14.67
2018-10-09T08:16:57.708Z,17.23
2018-10-09T08:22:01.940Z,15.37
2018-10-09T08:27:06.355Z,12.90
2018-10-09T08:32:10.883Z,13.53
2018-10-09T08:37:15.077Z,13.43
2018-10-09T08:42:19.273Z,17.63
2018-10-09T08:47:23.548Z,17.50
2018-10-09T08:52:27.777Z,16.57
2018-10-09T08:57:32.001Z,16.53
2018-10-09T09:02:36.191Z,15.37
2018-10-09T09:07:40.575Z,17.10
2018-10-09T09:12:44.964Z,17.07
2018-10-09T09:17:49.165Z,16.60
2018-10-09T09:22:53.403Z,17.63
2018-10-09T09:27:57.623Z,19.10
2018-10-09T09:33:01.817Z,17.00
2018-10-09T09:38:05.951Z,22.03
2018-10-09T09:43:10.152Z,23.70
2018-10-09T09:48:14.370Z,18.77
2018-10-09T09:53:18.636Z,16.20
2018-10-09T09:58:22.994Z,18.90
2018-10-09T10:03:27.755Z,19.60
2018-10-09T10:08:31.897Z,20.60
2018-10-09T10:13:36.290Z,19.83
2018-10-09T10:18:40.540Z,21.43
2018-10-09T10:23:44.742Z,17.80
2018-10-09T10:28:48.921Z,20.40
2018-10-09T10:33:53.188Z,14.50
2018-10-09T10:38:57.523Z,19.73
2018-10-09T10:44:01.711Z,17.47
2018-10-09T10:49:08.939Z,14.77
2018-10-09T10:54:13.105Z,17.00
2018-10-09T10:59:17.309Z,16.83
2018-10-09T11:04:21.555Z,17.37
2018-10-09T11:09:25.966Z,16.40
2018-10-09T11:14:30.545Z,20.27
2018-10-09T11:19:34.841Z,20.00
2018-10-09T11:24:39.255Z,15.30
2018-10-09T11:29:43.595Z,15.50
2018-10-09T11:34:47.819Z,17.63
2018-10-09T11:39:52.121Z,18.37
2018-10-09T11:44:56.412Z,20.20
2018-10-09T11:50:04.429Z,16.50
2018-10-09T11:55:08.658Z,17.10
2018-10-09T12:00:12.982Z,20.40
2018-10-09T12:05:17.241Z,16.10
2018-10-09T12:10:21.497Z,14.77
2018-10-09T12:15:25.851Z,12.30
2018-10-09T12:20:30.189Z,18.00
2018-10-09T12:25:34.385Z,15.80
2018-10-09T12:30:39.833Z,16.13
2018-10-09T12:35:44.199Z,12.20
2018-10-09T12:40:48.685Z,14.30
2018-10-09T12:45:53.070Z,16.00
2018-10-09T12:50:57.334Z,15.67
2018-10-09T12:56:01.763Z,14.53
2018-10-09T13:01:06.170Z,15.73
2018-10-09T13:06:12.597Z,15.60
2018-10-09T13:11:16.894Z,14.63
2018-10-09T13:16:21.131Z,13.63
2018-10-09T13:21:25.525Z,15.83
2018-10-09T13:26:29.714Z,15.23
2018-10-09T13:31:33.976Z,19.37
2018-10-09T13:36:38.410Z,14.17
2018-10-09T13:41:42.612Z,15.33
2018-10-09T13:46:46.820Z,14.23
2018-10-09T13:51:51.061Z,13.13
2018-10-09T13:56:55.423Z,15.20
2018-10-09T14:01:59.815Z,13.07
2018-10-09T14:07:04.109Z,11.73
2018-10-09T14:12:08.490Z,16.33
2018-10-09T14:17:12.933Z,10.90
2018-10-09T14:22:17.604Z,16.13
2018-10-09T14:27:22.471Z,13.47
2018-10-09T14:32:26.934Z,13.53
2018-10-09T14:37:31.273Z,11.23
2018-10-09T14:42:35.711Z,10.97
2018-10-09T14:47:39.948Z,10.93
2018-10-09T14:52:44.578Z,9.47
2018-10-09T14:57:48.812Z,10.40
2018-10-09T15:02:53.147Z,12.73
2018-10-09T15:07:57.365Z,12.03
2018-10-09T15:13:01.759Z,12.73
2018-10-09T15:18:06.120Z,11.33
2018-10-09T15:23:10.521Z,12.50
2018-10-09T15:28:14.869Z,13.97
2018-10-09T15:33:19.203Z,17.23
2018-10-09T15:38:23.552Z,12.93
2018-10-09T15:43:28.234Z,14.60
2018-10-09T15:48:32.392Z,11.70
2018-10-09T15:53:36.706Z,10.13
2018-10-09T15:58:41.030Z,10.40
2018-10-09T16:03:45.247Z,10.67
2018-10-09T16:08:49.484Z,11.07
2018-10-09T16:13:53.694Z,11.83
2018-10-09T16:18:58.028Z,10.03
2018-10-09T16:24:02.296Z,10.27
2018-10-09T16:29:06.497Z,10.53
2018-10-09T16:34:10.676Z,10.33
2018-10-09T16:39:14.860Z,12.07
2018-10-09T16:44:19.084Z,11.87
2018-10-09T16:49:23.291Z,10.30
2018-10-09T16:54:27.675Z,11.43
2018-10-09T16:59:32.048Z,9.60
2018-10-09T17:04:36.653Z,10.37
2018-10-09T17:09:41.007Z,11.87
2018-10-09T17:14:45.543Z,8.20
2018-10-09T17:19:49.778Z,8.47
2018-10-09T17:24:53.934Z,8.63
2018-10-09T17:29:58.216Z,8.43
2018-10-09T17:35:02.357Z,10.87
2018-10-09T17:40:06.852Z,8.40
2018-10-09T17:45:11.109Z,8.83
2018-10-09T17:50:15.351Z,8.00
2018-10-09T17:55:19.536Z,9.60
2018-10-09T18:00:23.742Z,7.83
2018-10-09T18:05:28.008Z,7.17
2018-10-09T18:10:32.264Z,8.73
2018-10-09T18:15:36.569Z,9.67
2018-10-09T18:20:41.158Z,8.33
2018-10-09T18:25:46.316Z,9.93
2018-10-09T18:30:51.519Z,8.90
2018-10-09T18:35:55.883Z,9.93
2018-10-09T18:41:00.382Z,8.37
2018-10-09T18:46:04.718Z,16.93
2018-10-09T18:51:09.945Z,12.40
2018-10-09T18:56:14.311Z,16.73
2018-10-09T19:01:19.093Z,16.50
2018-10-09T19:06:23.839Z,17.03
2018-10-09T19:11:28.788Z,13.53
2018-10-09T19:16:34.566Z,12.03
2018-10-09T19:21:38.909Z,12.70
2018-10-09T19:26:43.191Z,13.00
2018-10-09T19:31:47.612Z,13.90
2018-10-09T19:36:52.984Z,14.03
2018-10-09T19:41:58.183Z,13.13
2018-10-09T19:47:03.312Z,17.33
2018-10-09T19:52:07.726Z,14.43
2018-10-09T19:57:12.575Z,12.27
2018-10-09T20:02:16.859Z,12.53
2018-10-09T20:07:21.218Z,15.67
2018-10-09T20:12:25.876Z,15.10
2018-10-09T20:17:30.220Z,16.40
2018-10-09T20:22:34.499Z,15.67
2018-10-09T20:27:38.865Z,11.83
2018-10-09T20:32:43.281Z,11.80
2018-10-09T20:37:47.491Z,12.17
2018-10-09T20:42:51.755Z,11.87
2018-10-09T20:47:56.649Z,8.83
2018-10-09T20:53:00.854Z,9.07
2018-10-09T20:58:05.162Z,11.43
2018-10-09T21:03:09.388Z,14.00
2018-10-09T21:08:13.601Z,11.57
2018-10-09T21:13:17.980Z,13.13
2018-10-09T21:18:22.424Z,10.63
2018-10-09T21:23:26.809Z,9.47
2018-10-09T21:28:31.275Z,9.73
2018-10-09T21:33:35.820Z,8.27
2018-10-09T21:38:40.066Z,9.53
2018-10-09T21:43:44.355Z,9.03
2018-10-09T21:48:48.635Z,8.83
2018-10-09T21:53:52.860Z,8.97
2018-10-09T21:58:57.185Z,8.80
2018-10-09T22:04:01.432Z,8.17
2018-10-09T22:09:07.496Z,12.17
2018-10-09T22:14:11.804Z,10.93
2018-10-09T22:19:16.015Z,10.53
2018-10-09T22:24:20.647Z,9.27
2018-10-09T22:29:25.729Z,9.43
2018-10-09T22:34:29.962Z,9.50
2018-10-09T22:39:34.129Z,7.93
2018-10-09T22:44:38.629Z,9.70
2018-10-09T22:49:42.794Z,12.93
2018-10-09T22:54:47.121Z,8.80
2018-10-09T22:59:51.412Z,10.40
2018-10-09T23:04:55.750Z,9.50
2018-10-09T23:09:59.967Z,9.13
2018-10-09T23:15:05.725Z,10.87
2018-10-09T23:20:10.080Z,8.60
2018-10-09T23:25:14.632Z,9.27
2018-10-09T23:30:18.940Z,8.77
2018-10-09T23:35:23.557Z,7.90
2018-10-09T23:40:27.835Z,9.33
2018-10-09T23:45:32.002Z,8.27
2018-10-09T23:50:38.307Z,7.00
2018-10-09T23:55:42.568Z,10.40
